sensor_id;sensor_type;location;lat;lon;timestamp;pressure;altitude;pressure_sealevel;temperature
68743;BMP180;55725;42.758;26.702;2022-09-21T00:00:25;99266.00;;;12.50
68743;BMP180;55725;42.758;26.702;2022-09-21T00:02:05;99274.00;;;12.50
68743;BMP180;55725;42.758;26.702;2022-09-21T00:03:46;99274.00;;;12.50
68743;BMP180;55725;42.758;26.702;2022-09-21T00:05:26;99271.00;;;12.50
68743;BMP180;55725;42.758;26.702;2022-09-21T00:07:07;99267.00;;;12.50
68743;BMP180;55725;42.758;26.702;2022-09-21T00:08:47;99273.00;;;12.50
68743;BMP180;55725;42.758;26.702;2022-09-21T00:10:28;99270.00;;;12.60
68743;BMP180;55725;42.758;26.702;2022-09-21T00:12:08;99271.00;;;12.40
68743;BMP180;55725;42.758;26.702;2022-09-21T00:13:52;99273.00;;;12.50
68743;BMP180;55725;42.758;26.702;2022-09-21T00:15:34;99275.00;;;12.60
68743;BMP180;55725;42.758;26.702;2022-09-21T00:17:14;99274.00;;;12.60
68743;BMP180;55725;42.758;26.702;2022-09-21T00:18:54;99279.00;;;12.60
68743;BMP180;55725;42.758;26.702;2022-09-21T00:20:35;99275.00;;;12.50
68743;BMP180;55725;42.758;26.702;2022-09-21T00:22:15;99278.00;;;12.50
68743;BMP180;55725;42.758;26.702;2022-09-21T00:23:57;99264.00;;;12.60
68743;BMP180;55725;42.758;26.702;2022-09-21T00:25:38;99264.00;;;12.30
68743;BMP180;55725;42.758;26.702;2022-09-21T00:27:18;99270.00;;;12.40
68743;BMP180;55725;42.758;26.702;2022-09-21T00:29:00;99272.00;;;12.50
68743;BMP180;55725;42.758;26.702;2022-09-21T00:30:40;99266.00;;;12.60
68743;BMP180;55725;42.758;26.702;2022-09-21T00:32:21;99262.00;;;12.50
68743;BMP180;55725;42.758;26.702;2022-09-21T00:34:01;99268.00;;;12.50
68743;BMP180;55725;42.758;26.702;2022-09-21T00:35:42;99267.00;;;12.50
68743;BMP180;55725;42.758;26.702;2022-09-21T00:37:23;99259.00;;;12.60
68743;BMP180;55725;42.758;26.702;2022-09-21T00:39:03;99259.00;;;12.60
68743;BMP180;55725;42.758;26.702;2022-09-21T00:40:44;99274.00;;;12.70
68743;BMP180;55725;42.758;26.702;2022-09-21T00:42:25;99274.00;;;12.60
68743;BMP180;55725;42.758;26.702;2022-09-21T00:45:46;99277.00;;;12.60
68743;BMP180;55725;42.758;26.702;2022-09-21T00:49:12;99269.00;;;12.50
68743;BMP180;55725;42.758;26.702;2022-09-21T00:50:53;99273.00;;;12.60
68743;BMP180;55725;42.758;26.702;2022-09-21T00:52:39;99273.00;;;12.50
68743;BMP180;55725;42.758;26.702;2022-09-21T00:54:22;99276.00;;;12.50
68743;BMP180;55725;42.758;26.702;2022-09-21T00:56:04;99277.00;;;12.60
68743;BMP180;55725;42.758;26.702;2022-09-21T00:57:45;99279.00;;;12.50
68743;BMP180;55725;42.758;26.702;2022-09-21T00:59:29;99288.00;;;12.60
68743;BMP180;55725;42.758;26.702;2022-09-21T01:01:10;99293.00;;;12.50
68743;BMP180;55725;42.758;26.702;2022-09-21T01:02:51;99282.00;;;12.40
68743;BMP180;55725;42.758;26.702;2022-09-21T01:04:31;99287.00;;;12.30
68743;BMP180;55725;42.758;26.702;2022-09-21T01:06:14;99285.00;;;12.40
68743;BMP180;55725;42.758;26.702;2022-09-21T01:07:56;99286.00;;;12.40
68743;BMP180;55725;42.758;26.702;2022-09-21T01:09:39;99283.00;;;12.30
68743;BMP180;55725;42.758;26.702;2022-09-21T01:21:20;99282.00;;;12.20
68743;BMP180;55725;42.758;26.702;2022-09-21T01:23:12;99286.00;;;12.30
68743;BMP180;55725;42.758;26.702;2022-09-21T01:30:20;99289.00;;;11.50
68743;BMP180;55725;42.758;26.702;2022-09-21T01:32:06;99290.00;;;11.80
68743;BMP180;55725;42.758;26.702;2022-09-21T01:33:49;99273.00;;;12.40
68743;BMP180;55725;42.758;26.702;2022-09-21T01:35:36;99288.00;;;12.00
68743;BMP180;55725;42.758;26.702;2022-09-21T01:37:23;99279.00;;;11.50
68743;BMP180;55725;42.758;26.702;2022-09-21T01:39:08;99286.00;;;11.70
68743;BMP180;55725;42.758;26.702;2022-09-21T01:40:50;99281.00;;;10.90
68743;BMP180;55725;42.758;26.702;2022-09-21T01:42:32;99283.00;;;11.50
68743;BMP180;55725;42.758;26.702;2022-09-21T01:44:14;99282.00;;;11.90
68743;BMP180;55725;42.758;26.702;2022-09-21T01:45:57;99280.00;;;11.90
68743;BMP180;55725;42.758;26.702;2022-09-21T01:47:41;99287.00;;;10.60
68743;BMP180;55725;42.758;26.702;2022-09-21T01:49:25;99282.00;;;11.00
68743;BMP180;55725;42.758;26.702;2022-09-21T01:51:08;99268.00;;;10.20
68743;BMP180;55725;42.758;26.702;2022-09-21T01:52:51;99282.00;;;10.50
68743;BMP180;55725;42.758;26.702;2022-09-21T01:54:35;99282.00;;;10.60
68743;BMP180;55725;42.758;26.702;2022-09-21T01:56:37;99278.00;;;10.30
68743;BMP180;55725;42.758;26.702;2022-09-21T01:58:23;99279.00;;;10.70
68743;BMP180;55725;42.758;26.702;2022-09-21T02:00:06;99288.00;;;10.60
68743;BMP180;55725;42.758;26.702;2022-09-21T02:02:30;99289.00;;;10.50
68743;BMP180;55725;42.758;26.702;2022-09-21T02:03:52;99289.00;;;10.80
68743;BMP180;55725;42.758;26.702;2022-09-21T02:05:33;99288.00;;;10.60
68743;BMP180;55725;42.758;26.702;2022-09-21T02:07:14;99282.00;;;11.10
68743;BMP180;55725;42.758;26.702;2022-09-21T02:08:55;99290.00;;;10.80
68743;BMP180;55725;42.758;26.702;2022-09-21T02:10:37;99291.00;;;10.70
68743;BMP180;55725;42.758;26.702;2022-09-21T02:12:19;99281.00;;;10.30
68743;BMP180;55725;42.758;26.702;2022-09-21T02:13:59;99288.00;;;10.10
68743;BMP180;55725;42.758;26.702;2022-09-21T02:17:31;99286.00;;;10.20
68743;BMP180;55725;42.758;26.702;2022-09-21T02:21:39;99285.00;;;10.10
68743;BMP180;55725;42.758;26.702;2022-09-21T02:23:36;99289.00;;;10.10
68743;BMP180;55725;42.758;26.702;2022-09-21T02:29:00;99286.00;;;10.00
68743;BMP180;55725;42.758;26.702;2022-09-21T02:30:46;99284.00;;;10.30
68743;BMP180;55725;42.758;26.702;2022-09-21T02:34:18;99280.00;;;10.30
68743;BMP180;55725;42.758;26.702;2022-09-21T02:36:03;99289.00;;;10.20
68743;BMP180;55725;42.758;26.702;2022-09-21T02:38:29;99280.00;;;11.00
68743;BMP180;55725;42.758;26.702;2022-09-21T02:43:48;99280.00;;;11.20
68743;BMP180;55725;42.758;26.702;2022-09-21T02:45:31;99286.00;;;11.30
68743;BMP180;55725;42.758;26.702;2022-09-21T02:47:33;99279.00;;;10.90
68743;BMP180;55725;42.758;26.702;2022-09-21T02:49:17;99285.00;;;11.00
68743;BMP180;55725;42.758;26.702;2022-09-21T02:51:01;99289.00;;;10.80
68743;BMP180;55725;42.758;26.702;2022-09-21T02:52:42;99285.00;;;10.80
68743;BMP180;55725;42.758;26.702;2022-09-21T02:54:28;99287.00;;;11.20
68743;BMP180;55725;42.758;26.702;2022-09-21T02:56:09;99284.00;;;11.20
68743;BMP180;55725;42.758;26.702;2022-09-21T02:57:50;99287.00;;;11.50
68743;BMP180;55725;42.758;26.702;2022-09-21T02:59:32;99282.00;;;11.20
68743;BMP180;55725;42.758;26.702;2022-09-21T03:01:12;99283.00;;;11.10
68743;BMP180;55725;42.758;26.702;2022-09-21T03:02:54;99289.00;;;11.30
68743;BMP180;55725;42.758;26.702;2022-09-21T03:04:34;99291.00;;;11.10
68743;BMP180;55725;42.758;26.702;2022-09-21T03:06:15;99294.00;;;11.20
68743;BMP180;55725;42.758;26.702;2022-09-21T03:07:56;99296.00;;;11.50
68743;BMP180;55725;42.758;26.702;2022-09-21T03:09:37;99297.00;;;11.50
68743;BMP180;55725;42.758;26.702;2022-09-21T03:11:18;99308.00;;;11.70
68743;BMP180;55725;42.758;26.702;2022-09-21T03:12:59;99307.00;;;11.20
68743;BMP180;55725;42.758;26.702;2022-09-21T03:14:40;99298.00;;;11.60
68743;BMP180;55725;42.758;26.702;2022-09-21T03:16:20;99290.00;;;11.00
68743;BMP180;55725;42.758;26.702;2022-09-21T03:18:02;99298.00;;;11.30
68743;BMP180;55725;42.758;26.702;2022-09-21T03:19:44;99298.00;;;11.30
68743;BMP180;55725;42.758;26.702;2022-09-21T03:21:24;99294.00;;;11.40
68743;BMP180;55725;42.758;26.702;2022-09-21T03:23:05;99295.00;;;11.80
68743;BMP180;55725;42.758;26.702;2022-09-21T03:24:45;99292.00;;;12.00
68743;BMP180;55725;42.758;26.702;2022-09-21T03:26:25;99296.00;;;11.60
68743;BMP180;55725;42.758;26.702;2022-09-21T03:28:06;99295.00;;;11.80
68743;BMP180;55725;42.758;26.702;2022-09-21T03:29:46;99284.00;;;12.20
68743;BMP180;55725;42.758;26.702;2022-09-21T03:31:26;99296.00;;;11.70
68743;BMP180;55725;42.758;26.702;2022-09-21T03:33:07;99298.00;;;11.80
68743;BMP180;55725;42.758;26.702;2022-09-21T03:34:48;99297.00;;;12.00
68743;BMP180;55725;42.758;26.702;2022-09-21T03:36:28;99297.00;;;11.90
68743;BMP180;55725;42.758;26.702;2022-09-21T03:38:08;99300.00;;;11.50
68743;BMP180;55725;42.758;26.702;2022-09-21T03:39:49;99300.00;;;11.70
68743;BMP180;55725;42.758;26.702;2022-09-21T03:41:29;99306.00;;;11.80
68743;BMP180;55725;42.758;26.702;2022-09-21T03:43:09;99299.00;;;11.40
68743;BMP180;55725;42.758;26.702;2022-09-21T03:44:50;99297.00;;;11.80
68743;BMP180;55725;42.758;26.702;2022-09-21T03:46:30;99297.00;;;11.70
68743;BMP180;55725;42.758;26.702;2022-09-21T03:48:14;99288.00;;;11.70
68743;BMP180;55725;42.758;26.702;2022-09-21T03:49:54;99295.00;;;11.60
68743;BMP180;55725;42.758;26.702;2022-09-21T03:51:35;99297.00;;;11.60
68743;BMP180;55725;42.758;26.702;2022-09-21T03:53:15;99294.00;;;11.40
68743;BMP180;55725;42.758;26.702;2022-09-21T03:54:55;99287.00;;;11.60
68743;BMP180;55725;42.758;26.702;2022-09-21T03:56:36;99298.00;;;11.80
68743;BMP180;55725;42.758;26.702;2022-09-21T03:58:16;99297.00;;;11.70
68743;BMP180;55725;42.758;26.702;2022-09-21T03:59:57;99296.00;;;11.50
68743;BMP180;55725;42.758;26.702;2022-09-21T04:01:37;99295.00;;;12.20
68743;BMP180;55725;42.758;26.702;2022-09-21T04:03:17;99298.00;;;12.20
68743;BMP180;55725;42.758;26.702;2022-09-21T04:04:58;99298.00;;;12.50
68743;BMP180;55725;42.758;26.702;2022-09-21T04:06:39;99300.00;;;12.20
68743;BMP180;55725;42.758;26.702;2022-09-21T04:08:20;99305.00;;;12.00
68743;BMP180;55725;42.758;26.702;2022-09-21T04:10:01;99293.00;;;11.60
68743;BMP180;55725;42.758;26.702;2022-09-21T04:11:41;99287.00;;;11.90
68743;BMP180;55725;42.758;26.702;2022-09-21T04:13:23;99297.00;;;11.40
68743;BMP180;55725;42.758;26.702;2022-09-21T04:15:04;99295.00;;;11.50
68743;BMP180;55725;42.758;26.702;2022-09-21T04:16:46;99299.00;;;11.90
68743;BMP180;55725;42.758;26.702;2022-09-21T04:18:26;99298.00;;;11.80
68743;BMP180;55725;42.758;26.702;2022-09-21T04:20:07;99288.00;;;11.60
68743;BMP180;55725;42.758;26.702;2022-09-21T04:21:47;99288.00;;;11.50
68743;BMP180;55725;42.758;26.702;2022-09-21T04:23:30;99299.00;;;11.90
68743;BMP180;55725;42.758;26.702;2022-09-21T04:25:11;99298.00;;;12.20
68743;BMP180;55725;42.758;26.702;2022-09-21T04:26:51;99307.00;;;12.20
68743;BMP180;55725;42.758;26.702;2022-09-21T04:28:32;99299.00;;;12.40
68743;BMP180;55725;42.758;26.702;2022-09-21T04:30:13;99305.00;;;12.70
68743;BMP180;55725;42.758;26.702;2022-09-21T04:31:53;99290.00;;;12.90
68743;BMP180;55725;42.758;26.702;2022-09-21T04:33:33;99304.00;;;12.70
68743;BMP180;55725;42.758;26.702;2022-09-21T04:35:14;99295.00;;;11.90
68743;BMP180;55725;42.758;26.702;2022-09-21T04:36:54;99285.00;;;12.00
68743;BMP180;55725;42.758;26.702;2022-09-21T04:38:34;99289.00;;;12.10
68743;BMP180;55725;42.758;26.702;2022-09-21T04:40:15;99296.00;;;12.40
68743;BMP180;55725;42.758;26.702;2022-09-21T04:41:56;99295.00;;;12.30
68743;BMP180;55725;42.758;26.702;2022-09-21T04:43:36;99293.00;;;12.40
68743;BMP180;55725;42.758;26.702;2022-09-21T04:45:16;99294.00;;;12.10
68743;BMP180;55725;42.758;26.702;2022-09-21T04:46:57;99298.00;;;12.50
68743;BMP180;55725;42.758;26.702;2022-09-21T04:48:37;99307.00;;;12.20
68743;BMP180;55725;42.758;26.702;2022-09-21T04:50:18;99290.00;;;12.20
68743;BMP180;55725;42.758;26.702;2022-09-21T04:51:58;99293.00;;;12.30
68743;BMP180;55725;42.758;26.702;2022-09-21T04:53:39;99308.00;;;12.20
68743;BMP180;55725;42.758;26.702;2022-09-21T04:55:21;99295.00;;;12.10
68743;BMP180;55725;42.758;26.702;2022-09-21T04:57:01;99295.00;;;12.30
68743;BMP180;55725;42.758;26.702;2022-09-21T04:58:42;99297.00;;;12.20
68743;BMP180;55725;42.758;26.702;2022-09-21T05:00:22;99293.00;;;12.20
68743;BMP180;55725;42.758;26.702;2022-09-21T05:02:02;99296.00;;;12.20
68743;BMP180;55725;42.758;26.702;2022-09-21T05:03:43;99299.00;;;12.20
68743;BMP180;55725;42.758;26.702;2022-09-21T05:05:23;99298.00;;;12.20
68743;BMP180;55725;42.758;26.702;2022-09-21T05:07:03;99288.00;;;12.20
68743;BMP180;55725;42.758;26.702;2022-09-21T05:08:44;99293.00;;;12.70
68743;BMP180;55725;42.758;26.702;2022-09-21T05:10:43;99292.00;;;12.40
68743;BMP180;55725;42.758;26.702;2022-09-21T05:12:23;99277.00;;;12.60
68743;BMP180;55725;42.758;26.702;2022-09-21T05:14:03;99288.00;;;12.30
68743;BMP180;55725;42.758;26.702;2022-09-21T05:15:44;99288.00;;;12.40
68743;BMP180;55725;42.758;26.702;2022-09-21T05:17:24;99287.00;;;12.40
68743;BMP180;55725;42.758;26.702;2022-09-21T05:19:04;99286.00;;;12.50
68743;BMP180;55725;42.758;26.702;2022-09-21T05:20:52;99268.00;;;13.00
68743;BMP180;55725;42.758;26.702;2022-09-21T05:22:32;99266.00;;;13.10
68743;BMP180;55725;42.758;26.702;2022-09-21T05:24:12;99276.00;;;13.30
68743;BMP180;55725;42.758;26.702;2022-09-21T05:25:53;99286.00;;;13.70
68743;BMP180;55725;42.758;26.702;2022-09-21T05:27:33;99282.00;;;13.20
68743;BMP180;55725;42.758;26.702;2022-09-21T05:29:13;99288.00;;;12.80
68743;BMP180;55725;42.758;26.702;2022-09-21T05:34:35;99287.00;;;12.70
68743;BMP180;55725;42.758;26.702;2022-09-21T05:38:18;99283.00;;;12.70
68743;BMP180;55725;42.758;26.702;2022-09-21T05:39:59;99278.00;;;12.60
68743;BMP180;55725;42.758;26.702;2022-09-21T05:41:39;99272.00;;;12.70
68743;BMP180;55725;42.758;26.702;2022-09-21T05:43:20;99276.00;;;13.00
68743;BMP180;55725;42.758;26.702;2022-09-21T05:45:00;99279.00;;;12.80
68743;BMP180;55725;42.758;26.702;2022-09-21T05:48:38;99272.00;;;12.90
68743;BMP180;55725;42.758;26.702;2022-09-21T05:59:36;99223.00;;;14.70
68743;BMP180;55725;42.758;26.702;2022-09-21T06:01:26;99217.00;;;14.80
68743;BMP180;55725;42.758;26.702;2022-09-21T06:05:00;99210.00;;;15.10
68743;BMP180;55725;42.758;26.702;2022-09-21T06:06:41;99226.00;;;15.10
68743;BMP180;55725;42.758;26.702;2022-09-21T06:08:22;99221.00;;;15.20
68743;BMP180;55725;42.758;26.702;2022-09-21T06:10:02;99223.00;;;15.20
68743;BMP180;55725;42.758;26.702;2022-09-21T06:11:43;99222.00;;;15.00
68743;BMP180;55725;42.758;26.702;2022-09-21T06:13:23;99211.00;;;15.20
68743;BMP180;55725;42.758;26.702;2022-09-21T06:15:04;99216.00;;;15.30
68743;BMP180;55725;42.758;26.702;2022-09-21T06:16:45;99210.00;;;15.70
68743;BMP180;55725;42.758;26.702;2022-09-21T06:18:25;99204.00;;;15.30
68743;BMP180;55725;42.758;26.702;2022-09-21T06:20:05;99209.00;;;15.50
68743;BMP180;55725;42.758;26.702;2022-09-21T06:21:46;99210.00;;;15.50
68743;BMP180;55725;42.758;26.702;2022-09-21T06:23:27;99215.00;;;15.70
68743;BMP180;55725;42.758;26.702;2022-09-21T06:25:07;99212.00;;;15.70
68743;BMP180;55725;42.758;26.702;2022-09-21T06:26:47;99199.00;;;15.70
68743;BMP180;55725;42.758;26.702;2022-09-21T06:28:28;99206.00;;;15.90
68743;BMP180;55725;42.758;26.702;2022-09-21T06:30:08;99202.00;;;15.70
68743;BMP180;55725;42.758;26.702;2022-09-21T06:31:49;99194.00;;;15.90
68743;BMP180;55725;42.758;26.702;2022-09-21T06:33:30;99192.00;;;16.00
68743;BMP180;55725;42.758;26.702;2022-09-21T06:35:10;99192.00;;;16.20
68743;BMP180;55725;42.758;26.702;2022-09-21T06:36:50;99196.00;;;16.20
68743;BMP180;55725;42.758;26.702;2022-09-21T06:38:31;99194.00;;;16.10
68743;BMP180;55725;42.758;26.702;2022-09-21T06:40:11;99193.00;;;15.80
68743;BMP180;55725;42.758;26.702;2022-09-21T06:41:51;99201.00;;;16.30
68743;BMP180;55725;42.758;26.702;2022-09-21T06:43:32;99193.00;;;16.30
68743;BMP180;55725;42.758;26.702;2022-09-21T06:45:12;99191.00;;;16.30
68743;BMP180;55725;42.758;26.702;2022-09-21T06:46:53;99203.00;;;16.50
68743;BMP180;55725;42.758;26.702;2022-09-21T06:48:33;99184.00;;;16.50
68743;BMP180;55725;42.758;26.702;2022-09-21T06:50:14;99198.00;;;16.80
68743;BMP180;55725;42.758;26.702;2022-09-21T06:51:54;99189.00;;;16.80
68743;BMP180;55725;42.758;26.702;2022-09-21T06:53:35;99195.00;;;16.90
68743;BMP180;55725;42.758;26.702;2022-09-21T06:55:15;99188.00;;;16.70
68743;BMP180;55725;42.758;26.702;2022-09-21T06:56:55;99175.00;;;16.70
68743;BMP180;55725;42.758;26.702;2022-09-21T06:58:36;99184.00;;;16.80
68743;BMP180;55725;42.758;26.702;2022-09-21T07:00:17;99181.00;;;16.70
68743;BMP180;55725;42.758;26.702;2022-09-21T07:01:58;99180.00;;;17.00
68743;BMP180;55725;42.758;26.702;2022-09-21T07:03:38;99188.00;;;17.30
68743;BMP180;55725;42.758;26.702;2022-09-21T07:05:19;99178.00;;;17.40
68743;BMP180;55725;42.758;26.702;2022-09-21T07:06:59;99176.00;;;17.20
68743;BMP180;55725;42.758;26.702;2022-09-21T07:08:40;99177.00;;;17.10
68743;BMP180;55725;42.758;26.702;2022-09-21T07:10:21;99177.00;;;17.10
68743;BMP180;55725;42.758;26.702;2022-09-21T07:12:01;99181.00;;;17.40
68743;BMP180;55725;42.758;26.702;2022-09-21T07:13:42;99172.00;;;17.40
68743;BMP180;55725;42.758;26.702;2022-09-21T07:15:22;99174.00;;;17.60
68743;BMP180;55725;42.758;26.702;2022-09-21T07:17:02;99175.00;;;17.70
68743;BMP180;55725;42.758;26.702;2022-09-21T07:18:43;99181.00;;;17.40
68743;BMP180;55725;42.758;26.702;2022-09-21T07:20:23;99177.00;;;17.40
68743;BMP180;55725;42.758;26.702;2022-09-21T07:22:03;99169.00;;;17.40
68743;BMP180;55725;42.758;26.702;2022-09-21T07:23:44;99172.00;;;17.90
68743;BMP180;55725;42.758;26.702;2022-09-21T07:25:24;99176.00;;;17.40
68743;BMP180;55725;42.758;26.702;2022-09-21T07:27:04;99168.00;;;17.60
68743;BMP180;55725;42.758;26.702;2022-09-21T07:28:45;99166.00;;;17.90
68743;BMP180;55725;42.758;26.702;2022-09-21T07:30:25;99172.00;;;17.80
68743;BMP180;55725;42.758;26.702;2022-09-21T07:32:06;99180.00;;;17.90
68743;BMP180;55725;42.758;26.702;2022-09-21T07:33:47;99177.00;;;17.60
68743;BMP180;55725;42.758;26.702;2022-09-21T07:35:27;99181.00;;;17.70
68743;BMP180;55725;42.758;26.702;2022-09-21T07:37:07;99159.00;;;17.90
68743;BMP180;55725;42.758;26.702;2022-09-21T07:38:48;99168.00;;;18.00
68743;BMP180;55725;42.758;26.702;2022-09-21T07:40:28;99168.00;;;18.10
68743;BMP180;55725;42.758;26.702;2022-09-21T07:42:08;99163.00;;;17.90
68743;BMP180;55725;42.758;26.702;2022-09-21T07:43:49;99174.00;;;18.00
68743;BMP180;55725;42.758;26.702;2022-09-21T07:45:29;99185.00;;;18.50
68743;BMP180;55725;42.758;26.702;2022-09-21T07:47:10;99197.00;;;18.60
68743;BMP180;55725;42.758;26.702;2022-09-21T07:48:54;99189.00;;;18.60
68743;BMP180;55725;42.758;26.702;2022-09-21T07:50:35;99170.00;;;18.40
68743;BMP180;55725;42.758;26.702;2022-09-21T07:52:15;99158.00;;;19.00
68743;BMP180;55725;42.758;26.702;2022-09-21T07:53:56;99162.00;;;18.80
68743;BMP180;55725;42.758;26.702;2022-09-21T07:55:36;99167.00;;;19.10
68743;BMP180;55725;42.758;26.702;2022-09-21T07:57:16;99167.00;;;19.40
68743;BMP180;55725;42.758;26.702;2022-09-21T07:59:15;99177.00;;;18.70
68743;BMP180;55725;42.758;26.702;2022-09-21T08:00:55;99181.00;;;19.00
68743;BMP180;55725;42.758;26.702;2022-09-21T08:02:36;99173.00;;;18.80
68743;BMP180;55725;42.758;26.702;2022-09-21T08:04:16;99174.00;;;18.40
68743;BMP180;55725;42.758;26.702;2022-09-21T08:05:57;99159.00;;;19.30
68743;BMP180;55725;42.758;26.702;2022-09-21T08:07:38;99159.00;;;19.20
68743;BMP180;55725;42.758;26.702;2022-09-21T08:09:18;99157.00;;;19.10
68743;BMP180;55725;42.758;26.702;2022-09-21T08:11:04;99157.00;;;19.20
68743;BMP180;55725;42.758;26.702;2022-09-21T08:12:45;99194.00;;;18.70
68743;BMP180;55725;42.758;26.702;2022-09-21T08:14:25;99180.00;;;18.90
68743;BMP180;55725;42.758;26.702;2022-09-21T08:16:06;99197.00;;;19.20
68743;BMP180;55725;42.758;26.702;2022-09-21T08:17:46;99185.00;;;18.30
68743;BMP180;55725;42.758;26.702;2022-09-21T08:19:27;99186.00;;;18.50
68743;BMP180;55725;42.758;26.702;2022-09-21T08:21:08;99194.00;;;18.70
68743;BMP180;55725;42.758;26.702;2022-09-21T08:22:49;99189.00;;;18.80
68743;BMP180;55725;42.758;26.702;2022-09-21T08:24:32;99201.00;;;18.80
68743;BMP180;55725;42.758;26.702;2022-09-21T08:26:13;99210.00;;;18.60
68743;BMP180;55725;42.758;26.702;2022-09-21T08:27:58;99202.00;;;18.30
68743;BMP180;55725;42.758;26.702;2022-09-21T08:29:39;99200.00;;;18.40
68743;BMP180;55725;42.758;26.702;2022-09-21T08:31:20;99213.00;;;18.60
68743;BMP180;55725;42.758;26.702;2022-09-21T08:33:01;99213.00;;;18.30
68743;BMP180;55725;42.758;26.702;2022-09-21T08:34:42;99213.00;;;18.70
68743;BMP180;55725;42.758;26.702;2022-09-21T08:36:23;99205.00;;;18.60
68743;BMP180;55725;42.758;26.702;2022-09-21T08:38:03;99209.00;;;18.70
68743;BMP180;55725;42.758;26.702;2022-09-21T08:39:43;99210.00;;;18.20
68743;BMP180;55725;42.758;26.702;2022-09-21T08:41:27;99218.00;;;18.10
68743;BMP180;55725;42.758;26.702;2022-09-21T08:43:13;99200.00;;;18.00
68743;BMP180;55725;42.758;26.702;2022-09-21T08:44:56;99193.00;;;18.50
68743;BMP180;55725;42.758;26.702;2022-09-21T08:46:38;99202.00;;;18.50
68743;BMP180;55725;42.758;26.702;2022-09-21T08:48:20;99213.00;;;18.40
68743;BMP180;55725;42.758;26.702;2022-09-21T08:50:02;99211.00;;;18.30
68743;BMP180;55725;42.758;26.702;2022-09-21T08:51:45;99187.00;;;18.20
68743;BMP180;55725;42.758;26.702;2022-09-21T08:53:30;99196.00;;;18.60
68743;BMP180;55725;42.758;26.702;2022-09-21T08:55:15;99197.00;;;18.50
68743;BMP180;55725;42.758;26.702;2022-09-21T08:56:56;99202.00;;;18.50
68743;BMP180;55725;42.758;26.702;2022-09-21T08:58:37;99204.00;;;18.40
68743;BMP180;55725;42.758;26.702;2022-09-21T09:00:20;99182.00;;;18.60
68743;BMP180;55725;42.758;26.702;2022-09-21T09:02:07;99193.00;;;18.20
68743;BMP180;55725;42.758;26.702;2022-09-21T09:04:07;99193.00;;;18.70
68743;BMP180;55725;42.758;26.702;2022-09-21T09:06:12;99186.00;;;19.60
68743;BMP180;55725;42.758;26.702;2022-09-21T09:21:04;99187.00;;;19.60
68743;BMP180;55725;42.758;26.702;2022-09-21T09:22:44;99181.00;;;19.90
68743;BMP180;55725;42.758;26.702;2022-09-21T09:24:40;99187.00;;;20.00
68743;BMP180;55725;42.758;26.702;2022-09-21T09:26:33;99181.00;;;19.60
68743;BMP180;55725;42.758;26.702;2022-09-21T09:31:53;99191.00;;;19.60
68743;BMP180;55725;42.758;26.702;2022-09-21T09:33:41;99190.00;;;18.90
68743;BMP180;55725;42.758;26.702;2022-09-21T09:37:34;99181.00;;;19.00
68743;BMP180;55725;42.758;26.702;2022-09-21T09:39:17;99183.00;;;19.50
68743;BMP180;55725;42.758;26.702;2022-09-21T09:42:55;99193.00;;;19.70
68743;BMP180;55725;42.758;26.702;2022-09-21T09:50:28;99174.00;;;20.30
68743;BMP180;55725;42.758;26.702;2022-09-21T09:52:10;99183.00;;;19.60
68743;BMP180;55725;42.758;26.702;2022-09-21T09:53:51;99186.00;;;19.30
68743;BMP180;55725;42.758;26.702;2022-09-21T09:55:38;99178.00;;;19.80
68743;BMP180;55725;42.758;26.702;2022-09-21T09:57:19;99166.00;;;19.40
68743;BMP180;55725;42.758;26.702;2022-09-21T09:59:04;99150.00;;;19.50
68743;BMP180;55725;42.758;26.702;2022-09-21T10:00:49;99173.00;;;20.40
68743;BMP180;55725;42.758;26.702;2022-09-21T10:02:30;99163.00;;;19.50
68743;BMP180;55725;42.758;26.702;2022-09-21T10:04:12;99146.00;;;19.90
68743;BMP180;55725;42.758;26.702;2022-09-21T10:05:53;99103.00;;;19.80
68743;BMP180;55725;42.758;26.702;2022-09-21T10:09:18;99152.00;;;19.90
68743;BMP180;55725;42.758;26.702;2022-09-21T10:10:59;99146.00;;;20.50
68743;BMP180;55725;42.758;26.702;2022-09-21T10:12:39;99147.00;;;20.20
68743;BMP180;55725;42.758;26.702;2022-09-21T10:14:20;99158.00;;;19.60
68743;BMP180;55725;42.758;26.702;2022-09-21T10:16:03;99160.00;;;19.70
68743;BMP180;55725;42.758;26.702;2022-09-21T10:17:44;99161.00;;;20.50
68743;BMP180;55725;42.758;26.702;2022-09-21T10:19:26;99164.00;;;20.00
68743;BMP180;55725;42.758;26.702;2022-09-21T10:21:08;99170.00;;;20.70
68743;BMP180;55725;42.758;26.702;2022-09-21T10:22:52;99156.00;;;21.30
68743;BMP180;55725;42.758;26.702;2022-09-21T10:24:34;99145.00;;;20.70
68743;BMP180;55725;42.758;26.702;2022-09-21T10:26:15;99153.00;;;19.90
68743;BMP180;55725;42.758;26.702;2022-09-21T10:27:56;99155.00;;;20.10
68743;BMP180;55725;42.758;26.702;2022-09-21T10:29:43;99141.00;;;20.40
68743;BMP180;55725;42.758;26.702;2022-09-21T10:31:25;99151.00;;;20.10
68743;BMP180;55725;42.758;26.702;2022-09-21T10:33:17;99150.00;;;20.40
68743;BMP180;55725;42.758;26.702;2022-09-21T10:35:19;99160.00;;;20.40
68743;BMP180;55725;42.758;26.702;2022-09-21T10:36:59;99150.00;;;19.50
68743;BMP180;55725;42.758;26.702;2022-09-21T10:38:41;99162.00;;;20.40
68743;BMP180;55725;42.758;26.702;2022-09-21T10:40:22;99133.00;;;21.10
68743;BMP180;55725;42.758;26.702;2022-09-21T10:43:43;99117.00;;;22.00
68743;BMP180;55725;42.758;26.702;2022-09-21T10:45:25;99128.00;;;21.40
68743;BMP180;55725;42.758;26.702;2022-09-21T10:47:19;99133.00;;;21.90
68743;BMP180;55725;42.758;26.702;2022-09-21T10:49:01;99082.00;;;22.00
68743;BMP180;55725;42.758;26.702;2022-09-21T10:50:42;99155.00;;;21.10
68743;BMP180;55725;42.758;26.702;2022-09-21T10:52:24;99141.00;;;20.50
68743;BMP180;55725;42.758;26.702;2022-09-21T10:54:10;99134.00;;;21.10
68743;BMP180;55725;42.758;26.702;2022-09-21T10:55:57;99171.00;;;21.10
68743;BMP180;55725;42.758;26.702;2022-09-21T10:57:38;99125.00;;;20.50
68743;BMP180;55725;42.758;26.702;2022-09-21T11:01:11;99159.00;;;20.40
68743;BMP180;55725;42.758;26.702;2022-09-21T11:02:52;99117.00;;;20.60